Thor, South Carolina
Current Conditions -  °F | °C
As of 5:56 PM on Wednesday 26 Nov 2014 (Local Time) from KCAE Reporting Station
Few Clouds Few Clouds  
Wind Chill: 51°   Ceiling: Unl
Heat Index: 51°   Visibility: 10mi
Dew Point: 44°   Wind: 3mph
Humidity: 77%   Direction: 240°WSW
Pressure: 30.04"   Gusts: NA
Location:  33.7682°N, 81.2599°W
Report Text: KCAE 262256Z 24003KT 10SM FEW050 11/07 A3004 RMK AO2 SLP173 T01060067
Loading
Personal Weather Stations






























Interactive Weather Map New forecast layout! Learn more

10-Day Weather Forecast

Advertisements
Track Severe Weather on mobile